sensor_id;sensor_type;location;lat;lon;timestamp;temperature;humidity
27026;DHT22;14565;48.626;8.978;2023-06-14T00:02:06;12.20;97.40
27026;DHT22;14565;48.626;8.978;2023-06-14T00:04:34;12.30;97.30
27026;DHT22;14565;48.626;8.978;2023-06-14T00:07:00;12.30;97.70
27026;DHT22;14565;48.626;8.978;2023-06-14T00:09:26;12.30;97.50
27026;DHT22;14565;48.626;8.978;2023-06-14T00:11:52;12.40;97.60
27026;DHT22;14565;48.626;8.978;2023-06-14T00:14:18;12.40;97.40
27026;DHT22;14565;48.626;8.978;2023-06-14T00:16:43;12.30;97.70
27026;DHT22;14565;48.626;8.978;2023-06-14T00:19:09;12.30;97.60
27026;DHT22;14565;48.626;8.978;2023-06-14T00:21:38;12.10;97.70
27026;DHT22;14565;48.626;8.978;2023-06-14T00:24:04;12.20;97.50
27026;DHT22;14565;48.626;8.978;2023-06-14T00:26:30;12.40;96.90
27026;DHT22;14565;48.626;8.978;2023-06-14T00:28:56;12.30;96.90
27026;DHT22;14565;48.626;8.978;2023-06-14T00:31:22;12.20;97.50
27026;DHT22;14565;48.626;8.978;2023-06-14T00:33:48;11.70;98.30
27026;DHT22;14565;48.626;8.978;2023-06-14T00:36:13;11.80;98.70
27026;DHT22;14565;48.626;8.978;2023-06-14T00:38:39;11.80;98.60
27026;DHT22;14565;48.626;8.978;2023-06-14T00:41:05;11.80;99.20
27026;DHT22;14565;48.626;8.978;2023-06-14T00:43:31;11.60;99.80
27026;DHT22;14565;48.626;8.978;2023-06-14T00:45:56;11.50;99.80
27026;DHT22;14565;48.626;8.978;2023-06-14T00:48:22;11.60;99.90
27026;DHT22;14565;48.626;8.978;2023-06-14T00:50:49;11.50;99.80
27026;DHT22;14565;48.626;8.978;2023-06-14T00:53:16;11.40;99.90
27026;DHT22;14565;48.626;8.978;2023-06-14T00:55:43;11.50;99.90
27026;DHT22;14565;48.626;8.978;2023-06-14T00:58:09;11.50;99.90
27026;DHT22;14565;48.626;8.978;2023-06-14T01:00:36;11.70;99.70
27026;DHT22;14565;48.626;8.978;2023-06-14T01:03:01;11.70;99.80
27026;DHT22;14565;48.626;8.978;2023-06-14T01:05:28;11.60;99.70
27026;DHT22;14565;48.626;8.978;2023-06-14T01:08:20;11.70;99.90
27026;DHT22;14565;48.626;8.978;2023-06-14T01:11:12;11.70;99.90
27026;DHT22;14565;48.626;8.978;2023-06-14T01:13:40;11.30;99.90
27026;DHT22;14565;48.626;8.978;2023-06-14T01:16:07;11.20;99.90
27026;DHT22;14565;48.626;8.978;2023-06-14T01:18:34;11.10;99.90
27026;DHT22;14565;48.626;8.978;2023-06-14T01:21:00;11.20;99.90
27026;DHT22;14565;48.626;8.978;2023-06-14T01:23:31;11.20;99.90
27026;DHT22;14565;48.626;8.978;2023-06-14T01:25:57;11.20;99.90
27026;DHT22;14565;48.626;8.978;2023-06-14T01:28:23;11.20;99.90
27026;DHT22;14565;48.626;8.978;2023-06-14T01:30:52;11.20;99.90
27026;DHT22;14565;48.626;8.978;2023-06-14T01:33:21;11.20;99.90
27026;DHT22;14565;48.626;8.978;2023-06-14T01:35:51;11.10;99.90
27026;DHT22;14565;48.626;8.978;2023-06-14T01:38:23;11.20;99.90
27026;DHT22;14565;48.626;8.978;2023-06-14T01:40:50;11.40;99.90
27026;DHT22;14565;48.626;8.978;2023-06-14T01:43:16;11.50;99.90
27026;DHT22;14565;48.626;8.978;2023-06-14T01:45:45;11.50;99.90
27026;DHT22;14565;48.626;8.978;2023-06-14T01:48:12;11.40;99.90
27026;DHT22;14565;48.626;8.978;2023-06-14T01:50:38;11.20;99.90
27026;DHT22;14565;48.626;8.978;2023-06-14T01:53:08;11.10;99.90
27026;DHT22;14565;48.626;8.978;2023-06-14T01:55:34;11.00;99.90
27026;DHT22;14565;48.626;8.978;2023-06-14T01:58:03;11.00;99.90
27026;DHT22;14565;48.626;8.978;2023-06-14T02:00:29;10.90;99.90
27026;DHT22;14565;48.626;8.978;2023-06-14T02:02:55;10.70;99.90
27026;DHT22;14565;48.626;8.978;2023-06-14T02:05:21;10.80;99.90
27026;DHT22;14565;48.626;8.978;2023-06-14T02:07:47;10.80;99.90
27026;DHT22;14565;48.626;8.978;2023-06-14T02:10:13;10.80;99.90
27026;DHT22;14565;48.626;8.978;2023-06-14T02:12:40;10.80;99.90
27026;DHT22;14565;48.626;8.978;2023-06-14T02:15:07;11.00;99.90
27026;DHT22;14565;48.626;8.978;2023-06-14T02:17:32;10.90;99.90
27026;DHT22;14565;48.626;8.978;2023-06-14T02:19:59;10.80;99.90
27026;DHT22;14565;48.626;8.978;2023-06-14T02:22:25;10.70;99.90
27026;DHT22;14565;48.626;8.978;2023-06-14T02:24:50;10.60;99.90
27026;DHT22;14565;48.626;8.978;2023-06-14T02:27:16;10.60;99.90
27026;DHT22;14565;48.626;8.978;2023-06-14T02:29:42;10.60;99.90
27026;DHT22;14565;48.626;8.978;2023-06-14T02:32:07;10.50;99.90
27026;DHT22;14565;48.626;8.978;2023-06-14T02:34:34;10.60;99.90
27026;DHT22;14565;48.626;8.978;2023-06-14T02:37:00;10.80;99.90
27026;DHT22;14565;48.626;8.978;2023-06-14T02:39:28;10.80;99.90
27026;DHT22;14565;48.626;8.978;2023-06-14T02:41:54;10.90;99.90
27026;DHT22;14565;48.626;8.978;2023-06-14T02:44:23;10.80;99.90
27026;DHT22;14565;48.626;8.978;2023-06-14T02:46:49;10.80;99.90
27026;DHT22;14565;48.626;8.978;2023-06-14T02:49:14;10.70;99.90
27026;DHT22;14565;48.626;8.978;2023-06-14T02:51:40;10.50;99.90
27026;DHT22;14565;48.626;8.978;2023-06-14T02:54:06;10.60;99.90
27026;DHT22;14565;48.626;8.978;2023-06-14T02:56:31;10.60;99.90
27026;DHT22;14565;48.626;8.978;2023-06-14T02:58:57;10.60;99.90
27026;DHT22;14565;48.626;8.978;2023-06-14T03:01:28;10.50;99.90
27026;DHT22;14565;48.626;8.978;2023-06-14T03:04:01;10.50;99.90
27026;DHT22;14565;48.626;8.978;2023-06-14T03:06:28;10.50;99.90
27026;DHT22;14565;48.626;8.978;2023-06-14T03:08:55;10.40;99.90
27026;DHT22;14565;48.626;8.978;2023-06-14T03:11:24;10.40;99.90
27026;DHT22;14565;48.626;8.978;2023-06-14T03:13:50;10.50;99.90
27026;DHT22;14565;48.626;8.978;2023-06-14T03:16:17;10.50;99.90
27026;DHT22;14565;48.626;8.978;2023-06-14T03:18:45;10.40;99.90
27026;DHT22;14565;48.626;8.978;2023-06-14T03:21:11;10.40;99.90
27026;DHT22;14565;48.626;8.978;2023-06-14T03:23:36;10.50;99.90
27026;DHT22;14565;48.626;8.978;2023-06-14T03:26:02;10.50;99.90
27026;DHT22;14565;48.626;8.978;2023-06-14T03:28:28;10.50;99.90
27026;DHT22;14565;48.626;8.978;2023-06-14T03:30:53;10.50;99.90
27026;DHT22;14565;48.626;8.978;2023-06-14T03:33:19;10.50;99.90
27026;DHT22;14565;48.626;8.978;2023-06-14T03:35:45;10.60;99.90
27026;DHT22;14565;48.626;8.978;2023-06-14T03:38:10;10.50;99.90
27026;DHT22;14565;48.626;8.978;2023-06-14T03:40:36;10.40;99.90
27026;DHT22;14565;48.626;8.978;2023-06-14T03:43:02;10.50;99.90
27026;DHT22;14565;48.626;8.978;2023-06-14T03:45:27;10.50;99.90
27026;DHT22;14565;48.626;8.978;2023-06-14T03:47:53;10.50;99.90
27026;DHT22;14565;48.626;8.978;2023-06-14T03:50:20;10.60;99.90
27026;DHT22;14565;48.626;8.978;2023-06-14T03:52:48;10.60;99.90
27026;DHT22;14565;48.626;8.978;2023-06-14T03:55:14;10.70;99.90
27026;DHT22;14565;48.626;8.978;2023-06-14T03:57:41;10.70;99.90
27026;DHT22;14565;48.626;8.978;2023-06-14T04:00:09;10.70;99.90
27026;DHT22;14565;48.626;8.978;2023-06-14T04:02:35;10.70;99.90
27026;DHT22;14565;48.626;8.978;2023-06-14T04:05:02;10.70;99.90
27026;DHT22;14565;48.626;8.978;2023-06-14T04:07:28;10.80;99.90
27026;DHT22;14565;48.626;8.978;2023-06-14T04:09:55;10.80;99.90
27026;DHT22;14565;48.626;8.978;2023-06-14T04:12:21;10.90;99.90
27026;DHT22;14565;48.626;8.978;2023-06-14T04:14:46;11.00;99.90
27026;DHT22;14565;48.626;8.978;2023-06-14T04:17:12;11.10;99.90
27026;DHT22;14565;48.626;8.978;2023-06-14T04:19:37;11.10;99.90
27026;DHT22;14565;48.626;8.978;2023-06-14T04:22:03;11.10;99.90
27026;DHT22;14565;48.626;8.978;2023-06-14T04:24:29;11.20;99.90
27026;DHT22;14565;48.626;8.978;2023-06-14T04:26:58;11.30;99.90
27026;DHT22;14565;48.626;8.978;2023-06-14T04:29:24;11.40;99.90
27026;DHT22;14565;48.626;8.978;2023-06-14T04:31:53;11.60;99.90
27026;DHT22;14565;48.626;8.978;2023-06-14T04:34:19;11.60;99.90
27026;DHT22;14565;48.626;8.978;2023-06-14T04:36:44;11.70;99.90
27026;DHT22;14565;48.626;8.978;2023-06-14T04:39:19;11.80;99.90
27026;DHT22;14565;48.626;8.978;2023-06-14T04:41:46;11.90;99.90
27026;DHT22;14565;48.626;8.978;2023-06-14T04:44:13;11.90;99.90
27026;DHT22;14565;48.626;8.978;2023-06-14T04:46:39;12.00;99.90
27026;DHT22;14565;48.626;8.978;2023-06-14T04:49:15;12.10;99.90
27026;DHT22;14565;48.626;8.978;2023-06-14T04:51:44;12.10;99.90
27026;DHT22;14565;48.626;8.978;2023-06-14T04:54:11;12.20;99.90
27026;DHT22;14565;48.626;8.978;2023-06-14T04:56:39;12.40;99.90
27026;DHT22;14565;48.626;8.978;2023-06-14T04:59:05;12.60;99.90
27026;DHT22;14565;48.626;8.978;2023-06-14T05:01:31;12.90;99.90
27026;DHT22;14565;48.626;8.978;2023-06-14T05:03:57;12.90;99.90
27026;DHT22;14565;48.626;8.978;2023-06-14T05:06:23;13.00;99.90
27026;DHT22;14565;48.626;8.978;2023-06-14T05:08:49;13.20;99.90
27026;DHT22;14565;48.626;8.978;2023-06-14T05:11:15;13.40;99.90
27026;DHT22;14565;48.626;8.978;2023-06-14T05:13:42;13.60;99.90
27026;DHT22;14565;48.626;8.978;2023-06-14T05:16:09;13.90;99.30
27026;DHT22;14565;48.626;8.978;2023-06-14T05:18:35;14.10;98.70
27026;DHT22;14565;48.626;8.978;2023-06-14T05:21:00;14.00;98.70
27026;DHT22;14565;48.626;8.978;2023-06-14T05:23:26;14.20;98.80
27026;DHT22;14565;48.626;8.978;2023-06-14T05:25:52;14.60;98.80
27026;DHT22;14565;48.626;8.978;2023-06-14T05:28:18;14.80;98.50
27026;DHT22;14565;48.626;8.978;2023-06-14T05:30:44;15.30;97.40
27026;DHT22;14565;48.626;8.978;2023-06-14T05:33:09;17.40;94.90
27026;DHT22;14565;48.626;8.978;2023-06-14T05:35:35;19.40;91.30
27026;DHT22;14565;48.626;8.978;2023-06-14T05:38:01;20.60;86.80
27026;DHT22;14565;48.626;8.978;2023-06-14T05:40:26;21.90;84.60
27026;DHT22;14565;48.626;8.978;2023-06-14T05:42:52;22.00;81.50
27026;DHT22;14565;48.626;8.978;2023-06-14T05:45:18;22.00;79.20
27026;DHT22;14565;48.626;8.978;2023-06-14T05:47:43;23.10;75.20
27026;DHT22;14565;48.626;8.978;2023-06-14T05:50:09;24.70;72.00
27026;DHT22;14565;48.626;8.978;2023-06-14T05:52:35;26.20;66.80
27026;DHT22;14565;48.626;8.978;2023-06-14T05:55:02;27.30;63.80
27026;DHT22;14565;48.626;8.978;2023-06-14T05:57:28;27.40;61.90
27026;DHT22;14565;48.626;8.978;2023-06-14T05:59:54;28.70;59.20
27026;DHT22;14565;48.626;8.978;2023-06-14T06:02:20;27.70;58.90
27026;DHT22;14565;48.626;8.978;2023-06-14T06:04:46;28.90;58.20
27026;DHT22;14565;48.626;8.978;2023-06-14T06:07:11;29.90;54.80
27026;DHT22;14565;48.626;8.978;2023-06-14T06:09:37;30.20;54.70
27026;DHT22;14565;48.626;8.978;2023-06-14T06:12:04;31.30;54.00
27026;DHT22;14565;48.626;8.978;2023-06-14T06:14:31;30.10;54.80
27026;DHT22;14565;48.626;8.978;2023-06-14T06:16:57;30.90;54.00
27026;DHT22;14565;48.626;8.978;2023-06-14T06:19:22;29.40;55.30
27026;DHT22;14565;48.626;8.978;2023-06-14T06:21:48;30.40;55.60
27026;DHT22;14565;48.626;8.978;2023-06-14T06:24:14;29.50;56.30
27026;DHT22;14565;48.626;8.978;2023-06-14T06:26:39;27.70;58.00
27026;DHT22;14565;48.626;8.978;2023-06-14T06:29:05;29.20;58.30
27026;DHT22;14565;48.626;8.978;2023-06-14T06:31:31;29.70;55.70
27026;DHT22;14565;48.626;8.978;2023-06-14T06:33:57;28.10;57.70
27026;DHT22;14565;48.626;8.978;2023-06-14T06:36:22;27.80;57.60
27026;DHT22;14565;48.626;8.978;2023-06-14T06:38:49;27.20;59.00
27026;DHT22;14565;48.626;8.978;2023-06-14T06:41:15;28.50;56.50
27026;DHT22;14565;48.626;8.978;2023-06-14T06:43:41;30.90;56.00
27026;DHT22;14565;48.626;8.978;2023-06-14T06:46:07;29.50;57.10
27026;DHT22;14565;48.626;8.978;2023-06-14T06:48:35;28.90;56.90
27026;DHT22;14565;48.626;8.978;2023-06-14T06:51:00;28.50;57.30
27026;DHT22;14565;48.626;8.978;2023-06-14T06:53:26;26.60;59.30
27026;DHT22;14565;48.626;8.978;2023-06-14T06:55:52;27.00;60.00
27026;DHT22;14565;48.626;8.978;2023-06-14T06:58:20;26.00;61.80
27026;DHT22;14565;48.626;8.978;2023-06-14T07:00:47;27.80;58.30
27026;DHT22;14565;48.626;8.978;2023-06-14T07:03:13;28.20;58.60
27026;DHT22;14565;48.626;8.978;2023-06-14T07:05:38;26.60;59.90
27026;DHT22;14565;48.626;8.978;2023-06-14T07:08:04;26.20;61.00
27026;DHT22;14565;48.626;8.978;2023-06-14T07:10:29;27.20;60.60
27026;DHT22;14565;48.626;8.978;2023-06-14T07:12:56;28.50;59.50
27026;DHT22;14565;48.626;8.978;2023-06-14T07:15:21;27.40;58.90
27026;DHT22;14565;48.626;8.978;2023-06-14T07:17:47;26.70;60.60
27026;DHT22;14565;48.626;8.978;2023-06-14T07:20:13;25.60;63.30
27026;DHT22;14565;48.626;8.978;2023-06-14T07:22:42;28.70;59.30
27026;DHT22;14565;48.626;8.978;2023-06-14T07:25:09;26.90;60.70
27026;DHT22;14565;48.626;8.978;2023-06-14T07:27:37;27.90;59.30
27026;DHT22;14565;48.626;8.978;2023-06-14T07:30:03;26.90;60.60
27026;DHT22;14565;48.626;8.978;2023-06-14T07:32:30;27.50;58.40
27026;DHT22;14565;48.626;8.978;2023-06-14T07:34:55;26.90;61.10
27026;DHT22;14565;48.626;8.978;2023-06-14T07:37:21;29.30;56.70
27026;DHT22;14565;48.626;8.978;2023-06-14T07:39:46;28.90;56.90
27026;DHT22;14565;48.626;8.978;2023-06-14T07:42:12;29.00;57.00
27026;DHT22;14565;48.626;8.978;2023-06-14T07:44:38;29.70;55.70
27026;DHT22;14565;48.626;8.978;2023-06-14T07:47:03;28.60;56.90
27026;DHT22;14565;48.626;8.978;2023-06-14T07:49:29;27.50;58.70
27026;DHT22;14565;48.626;8.978;2023-06-14T07:51:55;27.00;59.10
27026;DHT22;14565;48.626;8.978;2023-06-14T07:54:20;26.50;59.70
27026;DHT22;14565;48.626;8.978;2023-06-14T07:56:51;26.20;60.90
27026;DHT22;14565;48.626;8.978;2023-06-14T07:59:16;26.50;57.30
27026;DHT22;14565;48.626;8.978;2023-06-14T08:01:42;26.50;59.20
27026;DHT22;14565;48.626;8.978;2023-06-14T08:04:13;25.50;59.70
27026;DHT22;14565;48.626;8.978;2023-06-14T08:06:39;25.80;61.90
27026;DHT22;14565;48.626;8.978;2023-06-14T08:09:04;25.10;61.70
27026;DHT22;14565;48.626;8.978;2023-06-14T08:11:31;25.00;62.60
27026;DHT22;14565;48.626;8.978;2023-06-14T08:13:57;24.80;63.40
27026;DHT22;14565;48.626;8.978;2023-06-14T08:16:22;25.00;63.90
27026;DHT22;14565;48.626;8.978;2023-06-14T08:18:49;24.30;63.10
27026;DHT22;14565;48.626;8.978;2023-06-14T08:21:14;24.10;64.10
27026;DHT22;14565;48.626;8.978;2023-06-14T08:23:40;24.30;65.30
27026;DHT22;14565;48.626;8.978;2023-06-14T08:26:08;24.50;64.30
27026;DHT22;14565;48.626;8.978;2023-06-14T08:28:34;24.70;64.30
27026;DHT22;14565;48.626;8.978;2023-06-14T08:30:59;24.50;63.60
27026;DHT22;14565;48.626;8.978;2023-06-14T08:33:25;24.00;65.00
27026;DHT22;14565;48.626;8.978;2023-06-14T08:35:51;23.80;63.90
27026;DHT22;14565;48.626;8.978;2023-06-14T08:38:16;23.60;65.10
27026;DHT22;14565;48.626;8.978;2023-06-14T08:40:42;23.60;65.70
27026;DHT22;14565;48.626;8.978;2023-06-14T08:43:08;24.00;65.50
27026;DHT22;14565;48.626;8.978;2023-06-14T08:45:34;23.60;64.20
27026;DHT22;14565;48.626;8.978;2023-06-14T08:48:00;23.40;65.50
27026;DHT22;14565;48.626;8.978;2023-06-14T08:50:27;23.40;65.20
27026;DHT22;14565;48.626;8.978;2023-06-14T08:52:58;23.80;65.30
27026;DHT22;14565;48.626;8.978;2023-06-14T08:55:31;23.10;66.00
27026;DHT22;14565;48.626;8.978;2023-06-14T08:57:58;23.40;66.40
27026;DHT22;14565;48.626;8.978;2023-06-14T09:00:25;23.70;66.00
27026;DHT22;14565;48.626;8.978;2023-06-14T09:02:52;24.00;66.00
27026;DHT22;14565;48.626;8.978;2023-06-14T09:05:27;23.70;64.10
27026;DHT22;14565;48.626;8.978;2023-06-14T09:07:54;23.80;65.10
27026;DHT22;14565;48.626;8.978;2023-06-14T09:10:21;24.10;64.50
27026;DHT22;14565;48.626;8.978;2023-06-14T09:12:48;23.90;63.50
27026;DHT22;14565;48.626;8.978;2023-06-14T09:15:14;24.00;64.60
27026;DHT22;14565;48.626;8.978;2023-06-14T09:17:41;24.10;64.60
27026;DHT22;14565;48.626;8.978;2023-06-14T09:20:08;23.80;64.50
27026;DHT22;14565;48.626;8.978;2023-06-14T09:22:44;23.20;65.70
27026;DHT22;14565;48.626;8.978;2023-06-14T09:25:10;23.00;65.10
27026;DHT22;14565;48.626;8.978;2023-06-14T09:27:38;23.10;67.50
27026;DHT22;14565;48.626;8.978;2023-06-14T09:30:10;23.50;68.50
27026;DHT22;14565;48.626;8.978;2023-06-14T09:32:39;23.30;65.70
27026;DHT22;14565;48.626;8.978;2023-06-14T09:35:09;23.20;66.40
27026;DHT22;14565;48.626;8.978;2023-06-14T09:37:35;23.00;65.70
27026;DHT22;14565;48.626;8.978;2023-06-14T09:40:03;23.20;66.10
27026;DHT22;14565;48.626;8.978;2023-06-14T09:42:29;23.20;65.90
27026;DHT22;14565;48.626;8.978;2023-06-14T09:44:56;23.00;66.10
27026;DHT22;14565;48.626;8.978;2023-06-14T09:47:23;22.90;66.20
27026;DHT22;14565;48.626;8.978;2023-06-14T09:49:50;22.90;66.40
27026;DHT22;14565;48.626;8.978;2023-06-14T09:52:19;23.60;66.40
27026;DHT22;14565;48.626;8.978;2023-06-14T09:54:47;23.50;67.70
27026;DHT22;14565;48.626;8.978;2023-06-14T09:57:21;23.80;65.40
27026;DHT22;14565;48.626;8.978;2023-06-14T09:59:48;23.80;59.90
27026;DHT22;14565;48.626;8.978;2023-06-14T10:05:12;23.30;65.70
27026;DHT22;14565;48.626;8.978;2023-06-14T10:08:00;23.70;65.30
27026;DHT22;14565;48.626;8.978;2023-06-14T10:10:28;23.40;65.80
27026;DHT22;14565;48.626;8.978;2023-06-14T10:12:54;23.40;65.30
27026;DHT22;14565;48.626;8.978;2023-06-14T10:17:57;23.10;65.00
27026;DHT22;14565;48.626;8.978;2023-06-14T10:20:42;23.50;64.10
27026;DHT22;14565;48.626;8.978;2023-06-14T10:23:17;23.50;65.70
27026;DHT22;14565;48.626;8.978;2023-06-14T10:25:44;23.60;65.70
27026;DHT22;14565;48.626;8.978;2023-06-14T10:28:21;23.50;65.30
27026;DHT22;14565;48.626;8.978;2023-06-14T10:31:08;23.20;63.30
27026;DHT22;14565;48.626;8.978;2023-06-14T10:33:56;22.90;64.80
27026;DHT22;14565;48.626;8.978;2023-06-14T10:36:28;23.20;62.30
27026;DHT22;14565;48.626;8.978;2023-06-14T10:39:17;23.90;62.50
27026;DHT22;14565;48.626;8.978;2023-06-14T10:41:53;24.00;61.20
27026;DHT22;14565;48.626;8.978;2023-06-14T10:50:16;22.90;65.50
27026;DHT22;14565;48.626;8.978;2023-06-14T10:52:44;23.40;63.50
27026;DHT22;14565;48.626;8.978;2023-06-14T10:55:15;24.10;62.10
27026;DHT22;14565;48.626;8.978;2023-06-14T10:57:52;24.20;61.20
27026;DHT22;14565;48.626;8.978;2023-06-14T11:00:24;24.10;62.10
27026;DHT22;14565;48.626;8.978;2023-06-14T11:05:48;24.10;63.70
27026;DHT22;14565;48.626;8.978;2023-06-14T11:11:06;24.40;63.60
27026;DHT22;14565;48.626;8.978;2023-06-14T11:13:32;23.90;64.20
27026;DHT22;14565;48.626;8.978;2023-06-14T11:15:58;24.10;62.50
27026;DHT22;14565;48.626;8.978;2023-06-14T11:18:24;24.00;62.20
27026;DHT22;14565;48.626;8.978;2023-06-14T11:20:50;24.10;63.10
27026;DHT22;14565;48.626;8.978;2023-06-14T11:23:16;24.10;62.30
27026;DHT22;14565;48.626;8.978;2023-06-14T11:25:42;24.10;63.60
27026;DHT22;14565;48.626;8.978;2023-06-14T11:28:08;24.00;63.70
27026;DHT22;14565;48.626;8.978;2023-06-14T11:30:33;24.00;63.90
27026;DHT22;14565;48.626;8.978;2023-06-14T11:32:59;24.00;61.80
27026;DHT22;14565;48.626;8.978;2023-06-14T11:35:26;23.90;62.00
27026;DHT22;14565;48.626;8.978;2023-06-14T11:37:55;24.00;61.00
27026;DHT22;14565;48.626;8.978;2023-06-14T11:40:26;24.10;61.20
27026;DHT22;14565;48.626;8.978;2023-06-14T11:43:01;24.10;60.90
27026;DHT22;14565;48.626;8.978;2023-06-14T11:45:26;24.20;59.80
27026;DHT22;14565;48.626;8.978;2023-06-14T11:47:55;24.20;60.50
27026;DHT22;14565;48.626;8.978;2023-06-14T11:50:22;24.00;62.50
27026;DHT22;14565;48.626;8.978;2023-06-14T11:52:55;24.70;61.60
27026;DHT22;14565;48.626;8.978;2023-06-14T11:55:24;25.10;59.20
27026;DHT22;14565;48.626;8.978;2023-06-14T11:57:50;25.20;58.70
27026;DHT22;14565;48.626;8.978;2023-06-14T12:00:16;24.90;58.40
27026;DHT22;14565;48.626;8.978;2023-06-14T12:02:51;24.80;60.00
27026;DHT22;14565;48.626;8.978;2023-06-14T12:05:20;24.70;60.50
27026;DHT22;14565;48.626;8.978;2023-06-14T12:07:46;24.70;61.50
27026;DHT22;14565;48.626;8.978;2023-06-14T12:10:14;24.50;62.30
27026;DHT22;14565;48.626;8.978;2023-06-14T12:12:40;23.80;63.70
27026;DHT22;14565;48.626;8.978;2023-06-14T12:15:08;23.80;64.40
27026;DHT22;14565;48.626;8.978;2023-06-14T12:17:35;23.90;64.70
27026;DHT22;14565;48.626;8.978;2023-06-14T12:20:11;24.10;64.20
27026;DHT22;14565;48.626;8.978;2023-06-14T12:22:59;23.60;63.80
27026;DHT22;14565;48.626;8.978;2023-06-14T12:25:31;23.50;63.90
27026;DHT22;14565;48.626;8.978;2023-06-14T12:27:59;23.60;65.20
27026;DHT22;14565;48.626;8.978;2023-06-14T12:30:25;23.30;65.30
27026;DHT22;14565;48.626;8.978;2023-06-14T12:32:50;23.50;64.20
27026;DHT22;14565;48.626;8.978;2023-06-14T12:35:17;23.60;65.60
27026;DHT22;14565;48.626;8.978;2023-06-14T12:37:44;23.40;65.80
27026;DHT22;14565;48.626;8.978;2023-06-14T12:40:11;23.50;65.40
27026;DHT22;14565;48.626;8.978;2023-06-14T12:42:37;23.70;64.40
27026;DHT22;14565;48.626;8.978;2023-06-14T12:45:04;23.70;63.90
27026;DHT22;14565;48.626;8.978;2023-06-14T12:47:30;23.60;65.20
27026;DHT22;14565;48.626;8.978;2023-06-14T12:49:56;23.50;63.70
27026;DHT22;14565;48.626;8.978;2023-06-14T12:52:21;23.30;63.40
27026;DHT22;14565;48.626;8.978;2023-06-14T12:54:47;23.70;64.40
27026;DHT22;14565;48.626;8.978;2023-06-14T12:57:13;24.10;63.00
27026;DHT22;14565;48.626;8.978;2023-06-14T12:59:38;24.40;62.10
27026;DHT22;14565;48.626;8.978;2023-06-14T13:02:18;24.60;62.30
27026;DHT22;14565;48.626;8.978;2023-06-14T13:04:44;24.40;63.00
27026;DHT22;14565;48.626;8.978;2023-06-14T13:07:10;24.30;63.10
27026;DHT22;14565;48.626;8.978;2023-06-14T13:09:36;23.80;63.80
27026;DHT22;14565;48.626;8.978;2023-06-14T13:12:02;23.50;65.00
27026;DHT22;14565;48.626;8.978;2023-06-14T13:14:28;23.50;66.80
27026;DHT22;14565;48.626;8.978;2023-06-14T13:16:54;23.50;63.90
27026;DHT22;14565;48.626;8.978;2023-06-14T13:19:21;23.70;64.40
27026;DHT22;14565;48.626;8.978;2023-06-14T13:21:46;23.50;63.60
27026;DHT22;14565;48.626;8.978;2023-06-14T13:24:12;23.20;62.50
27026;DHT22;14565;48.626;8.978;2023-06-14T13:26:37;23.00;63.70
27026;DHT22;14565;48.626;8.978;2023-06-14T13:29:03;23.50;64.80
27026;DHT22;14565;48.626;8.978;2023-06-14T13:31:29;23.70;64.20
27026;DHT22;14565;48.626;8.978;2023-06-14T13:33:55;24.10;63.40
27026;DHT22;14565;48.626;8.978;2023-06-14T13:36:20;24.10;62.70
27026;DHT22;14565;48.626;8.978;2023-06-14T13:38:46;24.20;62.70
27026;DHT22;14565;48.626;8.978;2023-06-14T13:41:12;24.00;62.00
27026;DHT22;14565;48.626;8.978;2023-06-14T13:43:38;24.00;63.30
27026;DHT22;14565;48.626;8.978;2023-06-14T13:46:04;24.00;65.10
27026;DHT22;14565;48.626;8.978;2023-06-14T13:48:29;23.70;62.50
27026;DHT22;14565;48.626;8.978;2023-06-14T13:50:55;23.90;64.90
27026;DHT22;14565;48.626;8.978;2023-06-14T13:53:22;23.60;63.30
27026;DHT22;14565;48.626;8.978;2023-06-14T13:55:48;23.60;65.20
27026;DHT22;14565;48.626;8.978;2023-06-14T13:58:13;23.90;61.70
27026;DHT22;14565;48.626;8.978;2023-06-14T14:00:42;24.00;61.70
27026;DHT22;14565;48.626;8.978;2023-06-14T14:03:07;24.00;62.60
27026;DHT22;14565;48.626;8.978;2023-06-14T14:05:34;23.50;63.30
27026;DHT22;14565;48.626;8.978;2023-06-14T14:08:00;23.60;63.90
27026;DHT22;14565;48.626;8.978;2023-06-14T14:10:25;23.70;63.40
27026;DHT22;14565;48.626;8.978;2023-06-14T14:12:51;23.50;62.70
27026;DHT22;14565;48.626;8.978;2023-06-14T14:15:18;23.50;63.30
27026;DHT22;14565;48.626;8.978;2023-06-14T14:17:44;23.70;63.20
27026;DHT22;14565;48.626;8.978;2023-06-14T14:20:10;24.00;62.80
27026;DHT22;14565;48.626;8.978;2023-06-14T14:22:38;23.70;61.20
27026;DHT22;14565;48.626;8.978;2023-06-14T14:25:06;23.80;61.70
27026;DHT22;14565;48.626;8.978;2023-06-14T14:27:32;23.90;62.50
27026;DHT22;14565;48.626;8.978;2023-06-14T14:29:57;23.80;64.00
27026;DHT22;14565;48.626;8.978;2023-06-14T14:32:23;23.70;63.20
27026;DHT22;14565;48.626;8.978;2023-06-14T14:34:49;23.70;61.80
27026;DHT22;14565;48.626;8.978;2023-06-14T14:37:14;23.80;62.70
27026;DHT22;14565;48.626;8.978;2023-06-14T14:39:40;23.80;63.70
27026;DHT22;14565;48.626;8.978;2023-06-14T14:42:06;23.80;61.90
27026;DHT22;14565;48.626;8.978;2023-06-14T14:44:33;23.70;62.40
27026;DHT22;14565;48.626;8.978;2023-06-14T14:46:58;23.80;63.00
27026;DHT22;14565;48.626;8.978;2023-06-14T14:49:24;23.60;63.00
27026;DHT22;14565;48.626;8.978;2023-06-14T14:51:50;23.70;62.50
27026;DHT22;14565;48.626;8.978;2023-06-14T14:54:15;23.70;64.00
27026;DHT22;14565;48.626;8.978;2023-06-14T14:56:41;23.70;61.10
27026;DHT22;14565;48.626;8.978;2023-06-14T14:59:07;23.80;61.80
27026;DHT22;14565;48.626;8.978;2023-06-14T15:01:32;23.70;61.50
27026;DHT22;14565;48.626;8.978;2023-06-14T15:03:58;23.70;64.00
27026;DHT22;14565;48.626;8.978;2023-06-14T15:06:23;24.00;63.80
27026;DHT22;14565;48.626;8.978;2023-06-14T15:08:49;24.00;64.80
27026;DHT22;14565;48.626;8.978;2023-06-14T15:11:16;24.10;65.00
27026;DHT22;14565;48.626;8.978;2023-06-14T15:13:41;24.10;64.70
27026;DHT22;14565;48.626;8.978;2023-06-14T15:16:07;23.90;63.20
27026;DHT22;14565;48.626;8.978;2023-06-14T15:18:33;23.70;62.70
27026;DHT22;14565;48.626;8.978;2023-06-14T15:20:58;23.60;63.00
27026;DHT22;14565;48.626;8.978;2023-06-14T15:23:24;23.50;63.50
27026;DHT22;14565;48.626;8.978;2023-06-14T15:25:50;23.60;64.20
27026;DHT22;14565;48.626;8.978;2023-06-14T15:28:17;23.70;64.20
27026;DHT22;14565;48.626;8.978;2023-06-14T15:30:42;23.40;62.80
27026;DHT22;14565;48.626;8.978;2023-06-14T15:33:08;23.80;63.60
27026;DHT22;14565;48.626;8.978;2023-06-14T15:35:34;23.70;62.70
27026;DHT22;14565;48.626;8.978;2023-06-14T15:37:59;23.90;62.70
27026;DHT22;14565;48.626;8.978;2023-06-14T15:40:25;24.00;63.20
27026;DHT22;14565;48.626;8.978;2023-06-14T15:42:52;23.80;63.40
27026;DHT22;14565;48.626;8.978;2023-06-14T15:45:17;24.10;63.40
27026;DHT22;14565;48.626;8.978;2023-06-14T15:47:43;24.10;65.30